EPRA

Radom Military Air Base Airport

Poland
METAR EPRA 231900Z 36005KT 9999 BKN032 M05/M08 Q1023
Observed Flight Rules
Feb-23 @ 19:00 UTC (4 hours ago) Visual Flight Rules
Wind Visibility Clouds
360° at 5 knots 10,000+ meters
  • Broken at 3,200' AGL
Temperatures Readings
Current -5°C / 23°F
Dewpoint -8°C / 18°F
Humidity 80%
Altimeter 30.21" Hg
Pressure 1023 hPa
Elevation 178
METAR EPRA 231900Z 36005KT 9999 BKN032 M05/M08 Q1023
Observed Flight Rules
Feb-23 @ 19:00 UTC
(4 hours ago)
VFR
Wind Visibility
360° at 5 knots 10,000+ meters
Clouds
  • Broken at 3,200' AGL
Temperature Dewpoint
-5°C / 23°F -8°C / 18°F
Humidity Altimeter Pressure
80% 30.21" Hg 1023 hPa